createdAt,value
2018-12-20T00:01:37.422Z,6.70
2018-12-20T00:04:05.719Z,6.70
2018-12-20T00:06:33.632Z,6.80
2018-12-20T00:09:01.616Z,6.80
2018-12-20T00:11:29.616Z,6.90
2018-12-20T00:13:57.685Z,7.00
2018-12-20T00:16:25.658Z,7.00
2018-12-20T00:18:53.615Z,7.00
2018-12-20T00:21:21.581Z,7.10
2018-12-20T00:23:49.613Z,7.00
2018-12-20T00:26:17.660Z,7.00
2018-12-20T00:28:45.762Z,6.90
2018-12-20T00:31:13.942Z,6.90
2018-12-20T00:33:41.871Z,6.90
2018-12-20T00:36:09.883Z,6.90
2018-12-20T00:38:37.950Z,6.80
2018-12-20T00:41:05.936Z,6.80
2018-12-20T00:43:33.895Z,6.80
2018-12-20T00:46:01.858Z,6.70
2018-12-20T00:48:29.822Z,6.80
2018-12-20T00:50:57.851Z,6.80
2018-12-20T00:53:25.876Z,6.80
2018-12-20T00:55:53.851Z,6.80
2018-12-20T00:58:21.900Z,6.90
2018-12-20T01:00:50.109Z,6.90
2018-12-20T01:03:18.296Z,6.90
2018-12-20T01:05:46.298Z,7.00
2018-12-20T01:08:14.259Z,7.00
2018-12-20T01:10:42.201Z,7.10
2018-12-20T01:13:10.172Z,7.10
2018-12-20T01:15:38.312Z,7.20
2018-12-20T01:18:06.424Z,7.20
2018-12-20T01:20:34.448Z,7.20
2018-12-20T01:23:02.433Z,7.30
2018-12-20T01:25:30.446Z,7.30
2018-12-20T01:27:58.560Z,7.30
2018-12-20T01:30:26.557Z,7.30
2018-12-20T01:32:54.516Z,7.40
2018-12-20T01:35:22.556Z,7.40
2018-12-20T01:37:50.529Z,7.40
2018-12-20T01:40:18.521Z,7.40
2018-12-20T01:42:46.572Z,7.50
2018-12-20T01:45:14.517Z,7.50
2018-12-20T01:47:42.456Z,7.50
2018-12-20T01:50:10.432Z,7.50
2018-12-20T01:52:38.489Z,7.50
2018-12-20T01:55:06.655Z,7.50
2018-12-20T01:57:34.648Z,7.50
2018-12-20T02:00:07.722Z,7.60
2018-12-20T02:02:35.661Z,7.60
2018-12-20T02:05:04.402Z,7.60
2018-12-20T02:07:32.365Z,7.60
2018-12-20T02:10:00.312Z,7.60
2018-12-20T02:12:28.280Z,7.60
2018-12-20T02:15:01.599Z,7.60
2018-12-20T02:17:26.294Z,7.60
2018-12-20T02:19:54.350Z,7.50
2018-12-20T02:22:22.441Z,7.50
2018-12-20T02:24:50.598Z,7.60
2018-12-20T02:27:18.725Z,7.60
2018-12-20T02:29:46.779Z,7.60
2018-12-20T02:32:14.849Z,7.60
2018-12-20T02:34:42.759Z,7.60
2018-12-20T02:37:10.809Z,7.60
2018-12-20T02:39:39.216Z,7.60
2018-12-20T02:42:07.307Z,7.60
2018-12-20T02:44:35.277Z,7.60
2018-12-20T02:47:03.549Z,7.60
2018-12-20T02:49:31.561Z,7.60
2018-12-20T02:51:59.585Z,7.60
2018-12-20T02:54:27.884Z,7.60
2018-12-20T02:56:55.943Z,7.70
2018-12-20T02:59:23.949Z,7.70
2018-12-20T03:01:52.027Z,7.70
2018-12-20T03:04:20.262Z,7.70
2018-12-20T03:06:48.411Z,7.70
2018-12-20T03:09:16.406Z,7.70
2018-12-20T03:11:44.403Z,7.70
2018-12-20T03:14:12.459Z,7.70
2018-12-20T03:16:40.410Z,7.70
2018-12-20T03:19:08.447Z,7.70
2018-12-20T03:21:36.474Z,7.70
2018-12-20T03:24:04.673Z,7.80
2018-12-20T03:26:32.810Z,7.80
2018-12-20T03:29:00.938Z,7.80
2018-12-20T03:31:29.083Z,7.80
2018-12-20T03:33:57.138Z,7.80
2018-12-20T03:36:25.288Z,7.80
2018-12-20T03:38:53.557Z,7.80
2018-12-20T03:41:21.778Z,7.80
2018-12-20T03:43:49.993Z,7.80
2018-12-20T03:46:17.985Z,7.80
2018-12-20T03:48:46.015Z,7.80
2018-12-20T03:51:13.984Z,7.80
2018-12-20T03:53:42.204Z,7.80
2018-12-20T03:56:10.256Z,7.80
2018-12-20T03:58:38.249Z,7.80
2018-12-20T04:01:06.258Z,7.80
2018-12-20T04:03:34.418Z,7.90
2018-12-20T04:06:02.731Z,7.90
2018-12-20T04:08:30.920Z,7.90
2018-12-20T04:10:59.170Z,7.90
2018-12-20T04:13:27.453Z,7.90
2018-12-20T04:15:55.518Z,7.90
2018-12-20T04:18:23.514Z,7.90
2018-12-20T04:20:51.695Z,7.90
2018-12-20T04:23:19.908Z,7.90
2018-12-20T04:25:48.029Z,8.00
2018-12-20T04:28:16.019Z,8.00
2018-12-20T04:30:43.983Z,8.00
2018-12-20T04:33:12.078Z,7.90
2018-12-20T04:35:40.237Z,7.90
2018-12-20T04:38:08.375Z,7.90
2018-12-20T04:40:36.423Z,7.90
2018-12-20T04:43:04.441Z,7.80
2018-12-20T04:45:32.449Z,7.80
2018-12-20T04:48:00.421Z,7.80
2018-12-20T04:50:28.468Z,7.70
2018-12-20T04:52:56.490Z,7.80
2018-12-20T04:55:24.728Z,7.80
2018-12-20T04:57:52.817Z,7.70
2018-12-20T05:00:20.760Z,7.60
2018-12-20T05:02:48.738Z,7.60
2018-12-20T05:05:16.958Z,7.60
2018-12-20T05:07:45.077Z,7.50
2018-12-20T05:10:13.081Z,7.50
2018-12-20T05:12:41.338Z,7.40
2018-12-20T05:15:09.601Z,7.30
2018-12-20T05:17:37.776Z,7.30
2018-12-20T05:20:06.239Z,7.20
2018-12-20T05:22:34.310Z,7.20
2018-12-20T05:25:02.606Z,7.10
2018-12-20T05:27:30.869Z,7.10
2018-12-20T05:29:58.968Z,7.00
2018-12-20T05:32:27.214Z,7.00
2018-12-20T05:34:55.288Z,7.00
2018-12-20T05:37:23.524Z,6.90
2018-12-20T05:39:52.668Z,6.90
2018-12-20T05:42:20.768Z,6.80
2018-12-20T05:44:48.857Z,6.80
2018-12-20T05:47:16.997Z,6.80
2018-12-20T05:49:45.090Z,6.70
2018-12-20T05:52:13.356Z,6.70
2018-12-20T05:54:41.543Z,6.60
2018-12-20T05:57:09.549Z,6.60
2018-12-20T05:59:37.743Z,6.50
2018-12-20T06:02:05.817Z,6.50
2018-12-20T06:04:34.494Z,6.50
2018-12-20T06:07:02.416Z,6.50
2018-12-20T06:09:30.529Z,6.50
2018-12-20T06:11:58.550Z,6.40
2018-12-20T06:14:26.679Z,6.50
2018-12-20T06:16:54.589Z,6.50
2018-12-20T06:19:22.555Z,6.50
2018-12-20T06:21:50.693Z,6.50
2018-12-20T06:24:18.765Z,6.50
2018-12-20T06:26:46.735Z,6.50
2018-12-20T06:29:14.676Z,6.60
2018-12-20T06:31:42.645Z,6.60
2018-12-20T06:34:10.617Z,6.70
2018-12-20T06:36:38.588Z,6.70
2018-12-20T06:39:06.987Z,6.70
2018-12-20T06:41:34.949Z,6.70
2018-12-20T06:44:07.101Z,6.70
2018-12-20T06:46:32.928Z,6.70
2018-12-20T06:49:00.875Z,6.70
2018-12-20T06:51:28.834Z,6.70
2018-12-20T06:53:56.823Z,6.70
2018-12-20T06:56:24.768Z,6.70
2018-12-20T06:58:53.620Z,6.80
2018-12-20T07:01:21.603Z,6.80
2018-12-20T07:03:49.578Z,6.90
2018-12-20T07:06:17.508Z,6.90
2018-12-20T07:08:45.498Z,6.90
2018-12-20T07:11:13.520Z,6.90
2018-12-20T07:13:41.504Z,7.00
2018-12-20T07:16:09.493Z,7.00
2018-12-20T07:18:37.437Z,7.00
2018-12-20T07:21:06.616Z,7.00
2018-12-20T07:23:34.540Z,7.00
2018-12-20T07:26:02.569Z,7.00
2018-12-20T07:28:30.521Z,6.90
2018-12-20T07:30:58.465Z,7.00
2018-12-20T07:33:26.437Z,7.00
2018-12-20T07:35:54.380Z,7.00
2018-12-20T07:38:22.345Z,7.00
2018-12-20T07:40:50.280Z,7.00
2018-12-20T07:43:18.533Z,6.90
2018-12-20T07:45:46.576Z,6.90
2018-12-20T07:48:14.572Z,6.80
2018-12-20T07:50:42.533Z,6.80
2018-12-20T07:53:10.478Z,6.90
2018-12-20T07:55:38.432Z,6.90
2018-12-20T07:58:06.384Z,6.90
2018-12-20T08:00:34.348Z,6.90
2018-12-20T08:03:02.315Z,6.90
2018-12-20T08:05:30.265Z,7.00
2018-12-20T08:07:58.203Z,7.10
2018-12-20T08:10:26.160Z,7.10
2018-12-20T08:12:54.100Z,7.20
2018-12-20T08:15:22.064Z,7.20
2018-12-20T08:17:50.017Z,7.30
2018-12-20T08:20:17.994Z,7.30
2018-12-20T08:22:45.948Z,7.30
2018-12-20T08:25:13.910Z,7.40
2018-12-20T08:27:41.856Z,7.40
2018-12-20T08:30:09.973Z,7.50
2018-12-20T08:32:37.960Z,7.50
2018-12-20T08:35:06.013Z,7.50
2018-12-20T08:37:33.953Z,7.50
2018-12-20T08:40:01.989Z,7.60
2018-12-20T08:42:29.972Z,7.60
2018-12-20T08:44:57.913Z,7.60
2018-12-20T08:47:25.875Z,7.70
2018-12-20T08:49:53.920Z,7.70
2018-12-20T08:52:21.886Z,7.80
2018-12-20T08:54:49.840Z,7.80
2018-12-20T08:57:17.793Z,7.80
2018-12-20T08:59:45.737Z,7.80
2018-12-20T09:02:13.687Z,7.90
2018-12-20T09:04:41.636Z,7.90
2018-12-20T09:07:09.608Z,7.90
2018-12-20T09:09:37.649Z,8.00
2018-12-20T09:12:05.615Z,8.10
2018-12-20T09:14:33.552Z,8.10
2018-12-20T09:17:03.151Z,8.20
2018-12-20T09:19:31.449Z,8.20
2018-12-20T09:21:59.522Z,8.20
2018-12-20T09:24:27.566Z,8.30
2018-12-20T09:26:55.609Z,8.30
2018-12-20T09:29:23.652Z,8.30
2018-12-20T09:31:51.589Z,8.40
2018-12-20T09:34:19.541Z,8.40
2018-12-20T09:36:47.508Z,8.40
2018-12-20T09:39:15.451Z,8.40
2018-12-20T09:41:43.401Z,8.50
2018-12-20T09:44:11.367Z,8.50
2018-12-20T09:46:39.311Z,8.50
2018-12-20T09:49:07.268Z,8.60
2018-12-20T09:51:35.929Z,8.70
2018-12-20T09:54:03.972Z,8.70
2018-12-20T09:56:31.908Z,8.70
2018-12-20T09:58:59.857Z,8.80
2018-12-20T10:01:27.817Z,8.80
2018-12-20T10:03:55.831Z,8.80
2018-12-20T10:06:23.770Z,8.80
2018-12-20T10:08:51.723Z,8.80
2018-12-20T10:11:19.676Z,8.80
2018-12-20T10:13:47.701Z,8.80
2018-12-20T10:16:15.665Z,8.80
2018-12-20T10:18:43.641Z,8.90
2018-12-20T10:21:11.597Z,8.90
2018-12-20T10:23:39.528Z,8.90
2018-12-20T10:26:07.505Z,8.90
2018-12-20T10:28:35.461Z,8.90
2018-12-20T10:31:03.432Z,8.90
2018-12-20T10:33:31.398Z,8.90
2018-12-20T10:35:59.369Z,9.00
2018-12-20T10:38:27.312Z,9.00
2018-12-20T10:40:55.332Z,9.10
2018-12-20T10:43:23.281Z,9.20
2018-12-20T10:45:51.256Z,9.30
2018-12-20T10:48:19.190Z,9.40
2018-12-20T10:50:47.182Z,9.40
2018-12-20T10:53:15.116Z,9.30
2018-12-20T10:55:43.073Z,9.30
2018-12-20T10:58:11.028Z,9.20
2018-12-20T11:00:39.064Z,9.20
2018-12-20T11:03:07.025Z,9.30
2018-12-20T11:05:34.964Z,9.40
2018-12-20T11:08:02.920Z,9.50
2018-12-20T11:10:30.864Z,9.50
2018-12-20T11:12:58.883Z,9.60
2018-12-20T11:15:26.816Z,9.70
2018-12-20T11:17:54.824Z,9.80
2018-12-20T11:20:22.757Z,9.80
2018-12-20T11:22:50.734Z,9.80
2018-12-20T11:25:18.750Z,9.80
2018-12-20T11:27:46.704Z,9.80
2018-12-20T11:30:14.728Z,9.80
2018-12-20T11:32:42.696Z,9.90
2018-12-20T11:35:10.709Z,10.00
2018-12-20T11:37:38.645Z,10.10
2018-12-20T11:40:06.768Z,10.10
2018-12-20T11:42:34.738Z,10.10
2018-12-20T11:45:03.453Z,10.10
2018-12-20T11:47:31.417Z,10.20
2018-12-20T11:49:59.424Z,10.20
2018-12-20T11:52:27.376Z,10.20
2018-12-20T11:54:55.348Z,10.20
2018-12-20T11:57:23.307Z,10.20
2018-12-20T11:59:51.280Z,10.30
2018-12-20T12:02:24.399Z,10.40
2018-12-20T12:04:49.222Z,10.50
2018-12-20T12:07:17.177Z,10.50
2018-12-20T12:09:45.302Z,10.60
2018-12-20T12:12:13.333Z,10.50
2018-12-20T12:14:41.391Z,10.60
2018-12-20T12:17:09.436Z,10.60
2018-12-20T12:19:37.467Z,10.70
2018-12-20T12:22:05.482Z,10.70
2018-12-20T12:24:33.512Z,10.80
2018-12-20T12:27:01.557Z,10.80
2018-12-20T12:29:29.524Z,10.70
2018-12-20T12:31:57.470Z,10.80
2018-12-20T12:34:25.448Z,10.80
2018-12-20T12:36:54.253Z,10.80
2018-12-20T12:39:22.216Z,10.80
2018-12-20T12:41:50.176Z,10.70
2018-12-20T12:44:18.286Z,10.70
2018-12-20T12:46:46.281Z,10.60
2018-12-20T12:49:14.260Z,10.50
2018-12-20T12:51:43.790Z,10.50
2018-12-20T12:54:12.176Z,10.50
2018-12-20T12:56:40.156Z,10.40
2018-12-20T12:59:08.143Z,10.30
2018-12-20T13:01:36.129Z,10.30
2018-12-20T13:04:04.084Z,10.30
2018-12-20T13:06:33.560Z,10.30
2018-12-20T13:09:01.510Z,10.30
2018-12-20T13:11:29.512Z,10.20
2018-12-20T13:13:57.456Z,10.20
2018-12-20T13:16:25.448Z,10.20
2018-12-20T13:18:53.956Z,10.20
2018-12-20T13:21:21.900Z,10.10
2018-12-20T13:23:49.873Z,10.10
2018-12-20T13:26:17.857Z,10.00
2018-12-20T13:28:45.833Z,10.00
2018-12-20T13:31:13.777Z,10.00
2018-12-20T13:33:41.745Z,9.90
2018-12-20T13:36:09.760Z,9.90
2018-12-20T13:38:37.750Z,9.80
2018-12-20T13:41:05.693Z,9.80
2018-12-20T13:43:33.656Z,9.70
2018-12-20T13:46:01.687Z,9.70
2018-12-20T13:48:29.664Z,9.70
2018-12-20T13:50:57.601Z,9.70
2018-12-20T13:53:25.573Z,9.80
2018-12-20T13:55:53.516Z,9.70
2018-12-20T13:58:21.536Z,9.70
2018-12-20T14:00:49.505Z,9.70
2018-12-20T14:03:17.493Z,9.70
2018-12-20T14:05:45.407Z,9.70
2018-12-20T14:08:13.352Z,9.70
2018-12-20T14:10:41.334Z,9.70
2018-12-20T14:13:09.315Z,9.70
2018-12-20T14:15:37.308Z,9.60
2018-12-20T14:18:05.256Z,9.60
2018-12-20T14:20:33.217Z,9.60
2018-12-20T14:23:01.410Z,9.60
2018-12-20T14:25:29.604Z,9.50
2018-12-20T14:27:57.523Z,9.50
2018-12-20T14:30:25.500Z,9.50
2018-12-20T14:32:53.445Z,9.50
2018-12-20T14:35:21.422Z,9.50
2018-12-20T14:37:49.367Z,9.50
2018-12-20T14:40:17.328Z,9.50
2018-12-20T14:42:45.339Z,9.40
2018-12-20T14:45:13.307Z,9.50
2018-12-20T14:47:41.253Z,9.40
2018-12-20T14:50:09.229Z,9.40
2018-12-20T14:52:37.287Z,9.30
2018-12-20T14:55:06.956Z,9.30
2018-12-20T14:57:34.913Z,9.30
2018-12-20T15:00:05.025Z,9.20
2018-12-20T15:02:33.016Z,9.20
2018-12-20T15:05:00.976Z,9.20
2018-12-20T15:07:28.932Z,9.20
2018-12-20T15:09:56.922Z,9.20
2018-12-20T15:12:24.853Z,9.20
2018-12-20T15:14:52.820Z,9.20
2018-12-20T15:17:20.821Z,9.10
2018-12-20T15:19:48.843Z,9.10
2018-12-20T15:22:16.851Z,9.10
2018-12-20T15:24:45.034Z,9.10
2018-12-20T15:27:13.001Z,9.10
2018-12-20T15:29:40.952Z,9.10
2018-12-20T15:32:08.916Z,9.10
2018-12-20T15:34:36.897Z,9.10
2018-12-20T15:37:04.985Z,9.10
2018-12-20T15:39:32.977Z,9.10
2018-12-20T15:42:01.019Z,9.00
2018-12-20T15:44:29.063Z,9.00
2018-12-20T15:46:59.224Z,9.00
2018-12-20T15:49:28.033Z,9.00
2018-12-20T15:51:55.997Z,9.00
2018-12-20T15:54:23.980Z,8.90
2018-12-20T15:56:52.094Z,9.00
2018-12-20T15:59:20.056Z,9.00
2018-12-20T16:01:48.024Z,9.00
2018-12-20T16:04:16.075Z,9.00
2018-12-20T16:06:44.222Z,9.00
2018-12-20T16:09:12.210Z,9.00
2018-12-20T16:11:40.153Z,9.00
2018-12-20T16:14:08.187Z,9.00
2018-12-20T16:16:36.168Z,9.00
2018-12-20T16:19:05.032Z,9.00
2018-12-20T16:21:33.320Z,9.00
2018-12-20T16:24:01.301Z,9.00
2018-12-20T16:26:30.542Z,9.10
2018-12-20T16:28:58.647Z,9.10
2018-12-20T16:31:26.659Z,9.10
2018-12-20T16:33:56.220Z,9.00
2018-12-20T16:36:24.416Z,9.10
2018-12-20T16:38:52.380Z,9.00
2018-12-20T16:41:20.354Z,9.10
2018-12-20T16:43:49.036Z,9.10
2018-12-20T16:46:17.265Z,9.10
2018-12-20T16:48:45.225Z,9.10
2018-12-20T16:51:13.207Z,9.10
2018-12-20T16:53:41.421Z,9.10
2018-12-20T16:56:09.575Z,9.10
2018-12-20T16:58:38.571Z,9.10
2018-12-20T17:01:06.558Z,9.10
2018-12-20T17:03:35.551Z,9.10
2018-12-20T17:06:04.199Z,9.10
2018-12-20T17:08:32.160Z,9.00
2018-12-20T17:11:00.842Z,9.00
2018-12-20T17:13:28.862Z,9.00
2018-12-20T17:15:56.845Z,9.00
2018-12-20T17:18:24.801Z,9.00
2018-12-20T17:20:53.431Z,9.00
2018-12-20T17:23:21.433Z,9.00
2018-12-20T17:25:49.429Z,9.00
2018-12-20T17:28:17.385Z,9.00
2018-12-20T17:30:45.365Z,9.00
2018-12-20T17:33:13.342Z,9.00
2018-12-20T17:35:41.313Z,9.00
2018-12-20T17:38:09.297Z,9.00
2018-12-20T17:40:37.964Z,9.00
2018-12-20T17:43:05.964Z,8.90
2018-12-20T17:45:33.920Z,8.90
2018-12-20T17:48:01.901Z,8.90
2018-12-20T17:50:29.870Z,8.90
2018-12-20T17:52:57.853Z,8.90
2018-12-20T17:55:25.811Z,8.90
2018-12-20T17:57:53.796Z,8.80
2018-12-20T18:00:22.112Z,8.80
2018-12-20T18:02:50.109Z,8.80
2018-12-20T18:05:18.264Z,8.80
2018-12-20T18:07:46.227Z,8.80
2018-12-20T18:10:14.189Z,8.80
2018-12-20T18:12:42.172Z,8.80
2018-12-20T18:15:10.209Z,8.80
2018-12-20T18:17:38.153Z,8.80
2018-12-20T18:20:07.434Z,8.80
2018-12-20T18:22:35.462Z,8.80
2018-12-20T18:25:04.026Z,8.80
2018-12-20T18:27:32.181Z,8.80
2018-12-20T18:30:00.178Z,8.80
2018-12-20T18:32:28.121Z,8.80
2018-12-20T18:34:56.106Z,8.80
2018-12-20T18:37:24.076Z,8.80
2018-12-20T18:39:52.080Z,8.80
2018-12-20T18:42:20.082Z,8.80
2018-12-20T18:44:48.061Z,8.80
2018-12-20T18:47:16.029Z,8.80
2018-12-20T18:49:47.650Z,8.80
2018-12-20T18:52:14.071Z,8.80
2018-12-20T18:54:42.058Z,8.80
2018-12-20T18:57:10.830Z,8.70
2018-12-20T18:59:40.700Z,8.80
2018-12-20T19:02:08.682Z,8.80
2018-12-20T19:04:36.623Z,8.80
2018-12-20T19:07:04.674Z,8.80
2018-12-20T19:09:32.690Z,8.80
2018-12-20T19:12:02.402Z,8.80
2018-12-20T19:14:30.698Z,8.80
2018-12-20T19:16:58.802Z,8.90
2018-12-20T19:19:26.818Z,8.90
2018-12-20T19:21:54.853Z,8.90
2018-12-20T19:24:23.731Z,8.90
2018-12-20T19:26:52.344Z,8.80
2018-12-20T19:29:20.336Z,8.80
2018-12-20T19:31:48.302Z,8.80
2018-12-20T19:34:16.245Z,8.80
2018-12-20T19:36:44.220Z,8.80
2018-12-20T19:39:12.205Z,8.80
2018-12-20T19:41:40.297Z,8.80
2018-12-20T19:44:08.231Z,8.80
2018-12-20T19:46:36.286Z,8.80
2018-12-20T19:49:04.377Z,8.80
2018-12-20T19:51:32.794Z,8.80
2018-12-20T19:54:00.760Z,8.70
2018-12-20T19:56:29.578Z,8.70
2018-12-20T19:58:57.665Z,8.60
2018-12-20T20:01:25.624Z,8.50
2018-12-20T20:03:53.596Z,8.50
2018-12-20T20:06:22.531Z,8.50
2018-12-20T20:08:50.556Z,8.50
2018-12-20T20:11:18.628Z,8.50
2018-12-20T20:13:46.590Z,8.60
2018-12-20T20:16:14.586Z,8.60
2018-12-20T20:18:42.887Z,8.60
2018-12-20T20:21:10.883Z,8.60
2018-12-20T20:23:39.326Z,8.60
2018-12-20T20:26:07.293Z,8.60
2018-12-20T20:28:35.334Z,8.50
2018-12-20T20:31:03.658Z,8.50
2018-12-20T20:33:31.658Z,8.60
2018-12-20T20:35:59.621Z,8.60
2018-12-20T20:38:27.602Z,8.60
2018-12-20T20:40:56.465Z,8.60
2018-12-20T20:43:24.443Z,8.60
2018-12-20T20:45:52.410Z,8.60
2018-12-20T20:48:20.584Z,8.60
2018-12-20T20:50:48.538Z,8.60
2018-12-20T20:53:17.312Z,8.70
2018-12-20T20:55:45.264Z,8.70
2018-12-20T20:58:13.297Z,8.70
2018-12-20T21:00:41.418Z,8.70
2018-12-20T21:03:09.374Z,8.70
2018-12-20T21:05:37.347Z,8.70
2018-12-20T21:08:05.315Z,8.70
2018-12-20T21:10:34.237Z,8.70
2018-12-20T21:13:02.213Z,8.70
2018-12-20T21:15:30.209Z,8.70
2018-12-20T21:17:58.180Z,8.70
2018-12-20T21:20:30.699Z,8.70
2018-12-20T21:22:56.183Z,8.70
2018-12-20T21:25:24.172Z,8.70
2018-12-20T21:27:52.169Z,8.70
2018-12-20T21:30:20.146Z,8.70
2018-12-20T21:32:48.248Z,8.70
2018-12-20T21:35:16.232Z,8.70
2018-12-20T21:37:44.197Z,8.70
2018-12-20T21:40:12.219Z,8.70
2018-12-20T21:42:40.197Z,8.70
2018-12-20T21:45:08.240Z,8.70
2018-12-20T21:47:36.219Z,8.70
2018-12-20T21:50:06.288Z,8.70
2018-12-20T21:52:34.320Z,8.70
2018-12-20T21:57:36.828Z,8.70
2018-12-20T22:00:07.171Z,8.60
2018-12-20T22:02:35.397Z,8.60
2018-12-20T22:05:04.118Z,8.60
2018-12-20T22:07:32.102Z,8.60
2018-12-20T22:10:00.152Z,8.60
2018-12-20T22:12:28.195Z,8.60
2018-12-20T22:14:56.131Z,8.60
2018-12-20T22:17:24.123Z,8.60
2018-12-20T22:19:58.563Z,8.60
2018-12-20T22:22:22.078Z,8.60
2018-12-20T22:24:50.032Z,8.60
2018-12-20T22:27:18.017Z,8.70
2018-12-20T22:29:45.963Z,8.70
2018-12-20T22:32:14.301Z,8.70
2018-12-20T22:34:42.276Z,8.70
2018-12-20T22:37:10.231Z,8.70
2018-12-20T22:39:38.218Z,8.70
2018-12-20T22:42:06.203Z,8.70
2018-12-20T22:44:34.197Z,8.70
2018-12-20T22:47:02.138Z,8.70
2018-12-20T22:49:30.125Z,8.70
2018-12-20T22:51:58.091Z,8.70
2018-12-20T22:54:26.053Z,8.70
2018-12-20T22:56:54.002Z,8.70
2018-12-20T22:59:22.011Z,8.70
2018-12-20T23:01:49.997Z,8.70
2018-12-20T23:04:18.041Z,8.70
2018-12-20T23:06:46.019Z,8.70
2018-12-20T23:09:13.973Z,8.70
2018-12-20T23:11:41.947Z,8.60
2018-12-20T23:14:10.019Z,8.60
2018-12-20T23:16:37.954Z,8.60
2018-12-20T23:19:05.913Z,8.60
2018-12-20T23:21:33.890Z,8.60
2018-12-20T23:24:01.842Z,8.60
2018-12-20T23:26:29.825Z,8.60
2018-12-20T23:28:58.143Z,8.60
2018-12-20T23:31:26.122Z,8.60
2018-12-20T23:33:54.060Z,8.60
2018-12-20T23:36:22.044Z,8.60
2018-12-20T23:38:49.998Z,8.60
2018-12-20T23:41:17.982Z,8.60
2018-12-20T23:43:45.938Z,8.60
2018-12-20T23:46:14.156Z,8.60
2018-12-20T23:48:42.140Z,8.60
2018-12-20T23:51:13.801Z,8.50
2018-12-20T23:53:43.067Z,8.50
2018-12-20T23:56:11.148Z,8.50
2018-12-20T23:58:39.134Z,8.50
